Time;durP1;ratioP1;P1;durP2;ratioP2;P2;SDS_P1;SDS_P2;PMS_P1;PMS_P2;Temp;Humidity;BMP_temperature;BMP_pressure;BME280_temperature;BME280_humidity;BME280_pressure;Samples;Min_cycle;Max_cycle;Signal;HPM_P1;HPM_P2
2021/12/12 00:00:32;;;;;;;37.03;15.02;;;;;;;3.65;93.83;102064.34;5044657;28;20306;-77
2021/12/12 00:03:10;;;;;;;39.17;15.45;;;;;;;3.67;93.59;102063.56;5044683;28;20260;-77
2021/12/12 00:05:45;;;;;;;41.17;15.20;;;;;;;3.67;93.78;102055.84;5044385;28;20017;-77
2021/12/12 00:08:11;;;;;;;36.10;14.75;;;;;;;3.67;93.59;102061.88;5057076;28;20187;-77
2021/12/12 00:10:40;;;;;;;38.80;14.57;;;;;;;3.69;93.53;102061.97;5044682;28;20033;-77
2021/12/12 00:13:16;;;;;;;38.25;13.55;;;;;;;3.71;93.41;102056.16;5043188;28;20124;-77
2021/12/12 00:15:41;;;;;;;37.20;13.60;;;;;;;3.70;93.26;102050.88;5043225;28;20025;-77
2021/12/12 00:18:08;;;;;;;39.63;14.30;;;;;;;3.72;93.54;102059.63;5076574;28;20060;-77
2021/12/12 00:20:34;;;;;;;37.65;14.10;;;;;;;3.73;93.85;102053.69;5044287;28;20029;-77
2021/12/12 00:23:00;;;;;;;32.33;13.25;;;;;;;3.74;93.78;102050.31;5044555;28;20017;-77
2021/12/12 00:25:28;;;;;;;39.97;13.52;;;;;;;3.75;93.50;102049.50;5075355;28;20269;-77
2021/12/12 00:27:54;;;;;;;33.10;12.67;;;;;;;3.76;93.33;102048.75;5076655;28;20279;-77
2021/12/12 00:30:19;;;;;;;35.92;13.55;;;;;;;3.78;93.31;102042.00;5049817;28;20343;-77
2021/12/12 00:32:45;;;;;;;35.78;12.68;;;;;;;3.79;93.60;102043.78;5086214;28;20255;-77
2021/12/12 00:35:14;;;;;;;41.35;13.18;;;;;;;3.80;93.42;102037.84;5045487;28;20025;-77
2021/12/12 00:37:41;;;;;;;37.13;12.63;;;;;;;3.81;93.44;102032.81;5044068;28;20021;-77
2021/12/12 00:40:27;;;;;;;30.85;12.23;;;;;;;3.82;93.16;102036.28;5054882;28;20036;-77
2021/12/12 00:42:55;;;;;;;35.53;12.02;;;;;;;3.84;93.37;102037.28;5036965;28;20256;-77
2021/12/12 00:45:22;;;;;;;33.67;12.32;;;;;;;3.85;93.26;102039.06;5068331;28;20042;-77
2021/12/12 00:47:47;;;;;;;34.67;13.13;;;;;;;3.86;92.87;102025.38;5043953;28;20336;-77
2021/12/12 00:50:24;;;;;;;32.28;12.77;;;;;;;3.88;93.11;102026.41;5047665;28;20033;-77
2021/12/12 00:52:51;;;;;;;33.78;12.35;;;;;;;3.89;93.26;102025.59;5043437;28;20027;-77
2021/12/12 00:55:16;;;;;;;31.92;12.38;;;;;;;3.90;93.45;102026.50;5043530;28;20045;-77
2021/12/12 00:57:42;;;;;;;37.67;11.80;;;;;;;3.92;93.02;102024.94;5043448;28;20149;-77
2021/12/12 01:00:12;;;;;;;42.78;12.48;;;;;;;3.93;92.87;102019.88;5044417;28;20094;-77
2021/12/12 01:02:37;;;;;;;;;;;;;;;3.98;92.99;102013.38;5043890;28;20037;-77
2021/12/12 01:05:06;;;;;;;34.25;12.10;;;;;;;3.95;93.33;102010.56;5062534;28;19908;-78
2021/12/12 01:07:36;;;;;;;42.05;13.20;;;;;;;3.95;93.22;102013.16;5049034;28;20068;-77
2021/12/12 01:10:13;;;;;;;37.50;12.93;;;;;;;3.96;93.65;102009.75;5056453;28;20275;-78
2021/12/12 01:12:39;;;;;;;34.08;12.07;;;;;;;3.95;93.84;102004.50;5043272;28;20049;-77
2021/12/12 01:15:27;;;;;;;30.45;12.57;;;;;;;3.96;94.08;102009.75;5045671;28;20044;-77
2021/12/12 01:17:56;;;;;;;38.85;12.75;;;;;;;3.95;93.91;102012.25;5051957;28;20041;-77
2021/12/12 01:20:40;;;;;;;36.08;14.20;;;;;;;3.95;94.13;102009.66;5042881;28;20041;-78
2021/12/12 01:23:12;;;;;;;33.72;12.90;;;;;;;3.95;93.91;102007.09;5042984;28;20028;-77
2021/12/12 01:25:44;;;;;;;32.42;12.15;;;;;;;3.96;94.17;102014.03;5045745;28;20052;-78
2021/12/12 01:28:13;;;;;;;40.17;13.98;;;;;;;3.96;94.31;102009.75;5074917;28;20017;-78
2021/12/12 01:30:39;;;;;;;39.42;12.73;;;;;;;3.96;94.23;102016.63;5042836;28;20073;-78
2021/12/12 01:33:04;;;;;;;40.72;12.82;;;;;;;3.96;94.41;102014.94;5042829;28;20167;-78
2021/12/12 01:35:30;;;;;;;41.78;12.75;;;;;;;3.98;94.19;102010.78;5043479;28;20040;-77
2021/12/12 01:40:49;;;;;;;29.40;12.30;;;;;;;3.99;94.52;102017.72;5042805;28;20036;-78
2021/12/12 01:43:40;;;;;;;37.33;13.43;;;;;;;4.00;94.61;102011.78;5043110;28;20128;-77
2021/12/12 01:46:24;;;;;;;38.20;12.90;;;;;;;4.03;94.44;102007.59;5042772;28;20224;-77
2021/12/12 01:48:59;;;;;;;38.40;12.13;;;;;;;4.03;94.32;102010.19;5042924;28;20272;-77
2021/12/12 01:51:27;;;;;;;36.28;12.38;;;;;;;4.03;94.92;102017.91;5042667;28;20040;-77
2021/12/12 01:53:56;;;;;;;38.75;13.55;;;;;;;4.05;94.54;102013.78;5074846;28;20205;-77
2021/12/12 01:56:26;;;;;;;32.90;11.68;;;;;;;4.04;94.90;102010.31;5041401;28;20284;-77
2021/12/12 01:58:54;;;;;;;39.03;12.85;;;;;;;4.05;94.75;102011.19;5042745;28;20041;-77
2021/12/12 02:01:29;;;;;;;36.28;12.50;;;;;;;4.05;95.18;102006.94;5041269;28;20264;-78
2021/12/12 02:04:00;;;;;;;36.50;12.55;;;;;;;4.09;95.20;102010.63;5060683;28;20025;-78
2021/12/12 02:06:26;;;;;;;37.70;11.98;;;;;;;4.08;95.39;102012.28;5042417;28;20264;-78
2021/12/12 02:08:53;;;;;;;36.92;11.98;;;;;;;4.09;95.18;102013.22;5042406;28;20067;-78
2021/12/12 02:11:25;;;;;;;30.95;10.73;;;;;;;4.08;95.56;102006.25;5042391;28;20022;-78
2021/12/12 02:13:54;;;;;;;40.80;13.02;;;;;;;4.10;95.19;102002.06;5033496;28;20166;-78
2021/12/12 02:16:21;;;;;;;33.22;11.77;;;;;;;4.11;95.15;102001.28;5042299;28;20027;-78
2021/12/12 02:18:50;;;;;;;37.53;12.43;;;;;;;4.11;95.85;101998.72;5041239;28;20025;-78
2021/12/12 02:21:29;;;;;;;35.28;12.27;;;;;;;4.13;95.71;102002.31;5074575;28;20053;-77
2021/12/12 02:37:27;;;;;;;33.78;11.27;;;;;;;4.21;95.56;102003.72;5041967;28;20169;-78
2021/12/12 02:39:52;;;;;;;32.83;11.65;;;;;;;4.24;95.90;101998.75;5042299;28;20292;-78
2021/12/12 02:42:21;;;;;;;36.65;11.13;;;;;;;4.26;96.08;101997.19;5041645;28;20252;-78
2021/12/12 02:44:53;;;;;;;37.00;11.98;;;;;;;4.29;95.77;101991.34;5040818;28;20041;-78
2021/12/12 02:47:21;;;;;;;38.45;11.55;;;;;;;4.29;95.74;101976.75;5042365;28;20028;-78
2021/12/12 02:52:17;;;;;;;36.38;12.05;;;;;;;4.32;96.17;101965.75;5045444;28;20148;-78
2021/12/12 02:54:44;;;;;;;31.08;11.32;;;;;;;4.33;96.14;101964.94;5044692;28;20036;-78
2021/12/12 02:57:13;;;;;;;33.75;11.82;;;;;;;4.35;96.40;101965.94;5045838;28;20041;-78
2021/12/12 02:59:40;;;;;;;;;;;;;;;4.39;95.74;101967.03;5046554;28;20100;-77
2021/12/12 03:02:12;;;;;;;25.42;10.00;;;;;;;4.38;96.28;101961.00;5045154;28;19951;-78
2021/12/12 03:04:38;;;;;;;35.03;10.88;;;;;;;4.37;96.32;101969.53;5037803;28;20112;-78
2021/12/12 03:07:07;;;;;;;32.83;11.52;;;;;;;4.39;96.54;101967.94;5044338;28;20049;-78
2021/12/12 03:09:39;;;;;;;34.53;12.60;;;;;;;4.39;96.80;101964.47;5044642;28;20021;-78
2021/12/12 03:12:19;;;;;;;34.50;11.05;;;;;;;4.39;96.82;101960.22;5045667;28;20055;-78
2021/12/12 03:14:46;;;;;;;33.58;12.13;;;;;;;4.41;96.91;101968.06;5039952;28;20049;-78
2021/12/12 03:17:21;;;;;;;34.08;11.52;;;;;;;4.43;97.89;101969.03;5032561;28;20318;-78
2021/12/12 03:19:53;;;;;;;37.10;13.23;;;;;;;4.44;97.10;101968.25;5045533;28;20021;-78
2021/12/12 03:22:20;;;;;;;34.42;11.57;;;;;;;4.44;96.98;101971.72;5044843;28;20223;-78
2021/12/12 03:24:46;;;;;;;32.20;11.95;;;;;;;4.46;97.00;101961.50;5045373;28;20176;-78
2021/12/12 03:27:11;;;;;;;31.65;11.40;;;;;;;4.48;97.00;101959.94;5045741;28;20045;-78
2021/12/12 03:29:39;;;;;;;35.65;12.48;;;;;;;4.48;97.10;101935.00;5045103;28;20021;-78
2021/12/12 03:32:08;;;;;;;33.10;12.10;;;;;;;4.49;97.28;101946.22;5045104;28;20037;-78
2021/12/12 03:34:35;;;;;;;;;;;;;;;4.53;96.75;101946.53;5044710;28;20033;-78
2021/12/12 03:37:03;;;;;;;37.50;11.60;;;;;;;4.53;97.30;101932.72;5043842;28;19905;-78
2021/12/12 03:39:34;;;;;;;39.63;12.05;;;;;;;4.52;97.55;101926.69;5044782;28;20057;-78
2021/12/12 03:42:03;;;;;;;32.38;12.20;;;;;;;4.54;97.58;101934.50;5044785;28;20041;-78
2021/12/12 03:44:32;;;;;;;33.67;12.40;;;;;;;4.54;97.58;101934.50;5043908;28;20063;-78
2021/12/12 03:47:03;;;;;;;38.60;13.30;;;;;;;4.58;97.91;101939.09;5044909;28;20029;-78
2021/12/12 03:49:31;;;;;;;35.45;12.68;;;;;;;4.57;98.02;101933.84;5044804;28;20106;-78
2021/12/12 03:51:57;;;;;;;33.22;12.63;;;;;;;4.56;98.24;101927.75;5076870;28;20088;-78
2021/12/12 03:54:22;;;;;;;36.13;13.10;;;;;;;4.59;97.95;101938.31;5043447;28;20103;-78
2021/12/12 03:56:48;;;;;;;35.25;13.70;;;;;;;4.60;97.96;101932.31;5043819;28;20017;-78
2021/12/12 03:59:14;;;;;;;39.22;15.00;;;;;;;4.59;98.10;101935.72;5075706;28;20168;-78
2021/12/12 04:01:44;;;;;;;32.42;14.18;;;;;;;4.61;98.44;101941.88;5044786;28;20029;-78
2021/12/12 04:04:32;;;;;;;36.63;13.30;;;;;;;4.63;97.94;101935.09;5043247;28;20041;-78
2021/12/12 04:06:59;;;;;;;35.20;13.50;;;;;;;4.64;98.34;101938.59;5044321;28;20033;-78
2021/12/12 04:09:24;;;;;;;33.63;13.57;;;;;;;4.65;98.58;101941.28;5044504;28;20033;-78
2021/12/12 04:11:54;;;;;;;33.63;13.57;;;;;;;4.65;98.58;101941.28;5044521;28;20033;-78
2021/12/12 04:14:20;;;;;;;;;;;;;;;4.69;97.62;101940.69;5044320;28;20045;-78
2021/12/12 04:16:50;;;;;;;32.08;12.20;;;;;;;4.70;98.43;101950.19;5044278;28;19928;-78
2021/12/12 04:19:16;;;;;;;34.78;13.27;;;;;;;4.71;98.18;101956.28;5044259;28;20033;-78
2021/12/12 04:21:41;;;;;;;36.75;14.18;;;;;;;4.71;98.83;101945.94;5044331;28;20070;-78
2021/12/12 04:24:09;;;;;;;39.42;14.52;;;;;;;4.70;98.56;101942.47;5042834;28;20152;-78
2021/12/12 04:26:42;;;;;;;33.83;13.77;;;;;;;4.73;98.82;101952.09;5044165;28;20017;-78
2021/12/12 04:29:15;;;;;;;32.72;14.40;;;;;;;4.74;98.68;101951.31;5043955;28;20033;-78
2021/12/12 04:31:43;;;;;;;34.80;14.57;;;;;;;4.75;98.63;101944.44;5043948;28;20051;-78
2021/12/12 04:34:10;;;;;;;33.33;13.90;;;;;;;4.76;98.54;101948.81;5042421;28;20053;-78
2021/12/12 04:36:40;;;;;;;37.78;15.93;;;;;;;4.77;98.62;101940.28;5044116;28;20048;-81
2021/12/12 04:39:28;;;;;;;35.05;14.98;;;;;;;4.79;98.63;101938.69;5042688;28;20264;-82
2021/12/12 04:41:59;;;;;;;32.28;13.98;;;;;;;4.78;98.70;101942.97;5043923;28;20088;-81
2021/12/12 04:44:29;;;;;;;31.00;13.48;;;;;;;4.81;98.72;101942.28;5042313;28;20037;-81
2021/12/12 04:49:57;;;;;;;34.55;14.73;;;;;;;4.82;98.48;101947.56;5042955;28;20183;-81
2021/12/12 04:52:46;;;;;;;32.28;12.63;;;;;;;4.83;98.62;101945.84;5043570;28;20032;-81
2021/12/12 04:55:31;;;;;;;32.13;13.18;;;;;;;4.84;98.94;101939.91;5043103;28;20207;-81
2021/12/12 04:58:05;;;;;;;32.58;12.68;;;;;;;4.85;99.03;101945.16;5075842;28;20017;-81
2021/12/12 05:00:37;;;;;;;28.95;13.18;;;;;;;4.86;98.95;101952.09;5043415;28;20278;-81
2021/12/12 05:03:20;;;;;;;30.02;12.32;;;;;;;4.87;98.87;101953.00;5042266;28;20052;-81
2021/12/12 05:05:57;;;;;;;31.58;11.82;;;;;;;4.89;98.95;101946.25;5041417;28;20025;-81
2021/12/12 05:08:38;;;;;;;28.08;11.80;;;;;;;4.90;99.14;101955.78;5043519;28;20071;-78
2021/12/12 05:11:16;;;;;;;26.23;12.15;;;;;;;4.91;98.85;101948.91;5043177;28;20017;-78
2021/12/12 05:13:49;;;;;;;24.90;12.07;;;;;;;4.91;98.76;101965.31;5043298;28;20235;-78
2021/12/12 05:16:21;;;;;;;24.88;11.57;;;;;;;4.92;98.83;101964.50;5042489;28;20040;-77
2021/12/12 05:18:51;;;;;;;24.45;11.25;;;;;;;4.94;98.97;101970.69;5043278;28;20049;-77
2021/12/12 05:21:23;;;;;;;26.55;11.77;;;;;;;4.95;99.30;101969.88;5043189;28;20028;-77
2021/12/12 05:23:51;;;;;;;25.17;11.85;;;;;;;4.96;99.25;101971.66;5043008;28;20264;-77
2021/12/12 05:26:20;;;;;;;27.35;11.75;;;;;;;4.96;99.37;101979.41;5042357;28;20080;-78
2021/12/12 05:28:48;;;;;;;;;;;;;;;4.99;99.00;101968.38;5043440;28;20184;-77
2021/12/12 05:31:18;;;;;;;25.08;10.52;;;;;;;5.00;98.94;101959.84;5041825;28;20007;-77
2021/12/12 05:33:48;;;;;;;27.80;11.30;;;;;;;5.00;99.18;101959.84;5041902;28;20036;-78
2021/12/12 05:36:15;;;;;;;25.75;10.98;;;;;;;5.01;99.30;101956.47;5041358;28;20021;-77
2021/12/12 05:38:41;;;;;;;26.08;10.95;;;;;;;5.01;99.33;101970.28;5074866;28;20036;-78
2021/12/12 05:41:08;;;;;;;24.13;11.38;;;;;;;5.02;99.66;101964.31;5042807;28;20145;-77
2021/12/12 05:43:34;;;;;;;27.98;11.68;;;;;;;5.03;99.55;101960.94;5074662;28;20084;-77
2021/12/12 05:46:01;;;;;;;25.17;11.15;;;;;;;5.05;99.50;101967.09;5038947;28;20029;-77
2021/12/12 05:48:27;;;;;;;27.27;10.95;;;;;;;5.06;99.61;101973.16;5032278;28;20037;-77
2021/12/12 05:50:53;;;;;;;24.17;11.25;;;;;;;5.07;99.48;101971.47;5042792;28;20021;-77
2021/12/12 05:53:19;;;;;;;26.58;11.68;;;;;;;5.07;99.49;101977.53;5074655;28;20354;-78
2021/12/12 05:55:46;;;;;;;28.83;12.75;;;;;;;5.09;99.59;101975.06;5074092;28;20036;-78
2021/12/12 05:58:19;;;;;;;26.58;11.68;;;;;;;5.11;99.80;101974.31;5042260;28;20036;-78
2021/12/12 06:00:48;;;;;;;25.80;11.20;;;;;;;5.13;99.87;101977.03;5075167;28;20024;-78
2021/12/12 06:03:18;;;;;;;22.50;11.00;;;;;;;5.14;99.68;101983.97;5042598;28;20065;-78
2021/12/12 06:05:43;;;;;;;27.33;10.52;;;;;;;5.16;99.86;101983.28;5041440;28;20029;-78
2021/12/12 06:08:10;;;;;;;23.60;11.13;;;;;;;5.18;99.45;101980.78;5042419;28;20029;-78
2021/12/12 06:10:38;;;;;;;25.90;11.35;;;;;;;5.20;99.86;101984.38;5031177;28;20079;-78
2021/12/12 06:13:09;;;;;;;27.20;11.45;;;;;;;5.19;99.48;101983.47;5042382;28;20291;-78
2021/12/12 06:15:35;;;;;;;25.23;11.27;;;;;;;5.21;99.73;101988.75;5074033;28;20044;-78
2021/12/12 06:18:01;;;;;;;26.77;11.18;;;;;;;5.24;99.68;101999.25;5042331;28;20041;-78
2021/12/12 06:20:27;;;;;;;21.55;10.05;;;;;;;5.25;100.00;101988.13;5042487;28;20028;-78
2021/12/12 06:22:54;;;;;;;22.20;10.82;;;;;;;5.25;99.65;102000.19;5042692;28;20139;-78
2021/12/12 06:25:20;;;;;;;25.27;11.32;;;;;;;5.27;99.59;101995.97;5045809;28;20050;-78
2021/12/12 06:27:46;;;;;;;26.65;11.57;;;;;;;5.31;99.82;101993.69;5046509;28;20079;-78
2021/12/12 06:30:15;;;;;;;24.08;10.82;;;;;;;5.33;99.92;101998.94;5046314;28;20037;-78
2021/12/12 06:32:42;;;;;;;;;;;;;;;5.37;99.53;101993.19;5045403;28;20033;-78
2021/12/12 06:35:08;;;;;;;25.88;11.07;;;;;;;5.36;99.61;101991.41;5045499;28;19916;-78
2021/12/12 06:37:34;;;;;;;29.90;12.63;;;;;;;5.38;99.81;101990.69;5045018;28;20097;-78
2021/12/12 06:39:59;;;;;;;29.17;11.63;;;;;;;5.39;99.67;101997.66;5046460;28;20040;-78
2021/12/12 06:42:25;;;;;;;31.33;12.75;;;;;;;5.42;100.00;101996.06;5044889;28;20238;-78
2021/12/12 06:44:51;;;;;;;26.80;11.98;;;;;;;5.42;99.79;101996.06;5047289;28;20139;-78
2021/12/12 06:47:17;;;;;;;25.63;11.68;;;;;;;5.46;100.00;102000.63;5055469;28;20025;-78
2021/12/12 06:49:44;;;;;;;27.48;12.00;;;;;;;5.47;99.90;101999.84;5046076;28;20026;-78
2021/12/12 06:52:11;;;;;;;32.20;12.15;;;;;;;5.49;99.87;102003.41;5046159;28;20037;-78
2021/12/12 06:54:38;;;;;;;28.17;12.98;;;;;;;5.50;100.00;102006.06;5078096;28;20195;-78
2021/12/12 06:57:08;;;;;;;37.20;13.15;;;;;;;5.51;99.97;102002.72;5057735;28;20017;-78
2021/12/12 06:59:35;;;;;;;31.70;12.48;;;;;;;5.53;100.00;102005.38;5049205;28;20092;-78
2021/12/12 07:02:02;;;;;;;30.35;12.50;;;;;;;5.54;100.00;102004.59;5044614;28;20072;-78
2021/12/12 07:04:30;;;;;;;34.33;12.88;;;;;;;5.57;100.00;102009.94;5045564;28;20033;-78
2021/12/12 07:06:58;;;;;;;30.05;12.98;;;;;;;5.60;99.91;101999.81;5054234;28;20049;-78
2021/12/12 07:09:24;;;;;;;31.15;12.95;;;;;;;5.63;100.00;102012.91;5044307;28;20024;-78
2021/12/12 07:11:52;;;;;;;31.63;12.98;;;;;;;5.65;100.00;102000.09;5050515;28;20024;-78
2021/12/12 07:14:17;;;;;;;29.65;13.70;;;;;;;5.66;99.96;102002.78;5048443;28;20029;-78
2021/12/12 07:16:45;;;;;;;30.60;13.43;;;;;;;5.66;100.00;102000.22;5045632;28;20326;-78
2021/12/12 07:19:14;;;;;;;30.80;13.23;;;;;;;5.68;100.00;102001.19;5047588;28;20021;-77
2021/12/12 07:21:42;;;;;;;38.00;14.15;;;;;;;5.70;100.00;102003.88;5077630;28;20041;-78
2021/12/12 07:24:08;;;;;;;32.63;13.50;;;;;;;5.73;100.00;102014.41;5045451;28;20272;-78
2021/12/12 07:26:34;;;;;;;33.63;13.60;;;;;;;5.74;100.00;102016.19;5045468;28;20072;-78
2021/12/12 07:29:00;;;;;;;34.78;13.63;;;;;;;5.74;100.00;102001.56;5077448;28;20021;-78
2021/12/12 07:31:28;;;;;;;33.33;13.52;;;;;;;5.78;100.00;102006.91;5057047;28;20071;-78
2021/12/12 07:33:57;;;;;;;32.60;14.30;;;;;;;5.78;100.00;102007.81;5045012;28;20091;-78
2021/12/12 07:36:24;;;;;;;32.45;13.38;;;;;;;5.80;100.00;102005.34;5050657;28;20069;-78
2021/12/12 07:38:59;;;;;;;34.10;14.23;;;;;;;5.80;100.00;102010.50;5048299;28;20166;-78
2021/12/12 07:41:28;;;;;;;36.03;14.77;;;;;;;5.83;100.00;102010.69;5055584;28;20030;-78
2021/12/12 07:43:54;;;;;;;33.22;13.77;;;;;;;5.82;100.00;102014.97;5044814;28;20045;-78
2021/12/12 07:46:20;;;;;;;36.67;14.00;;;;;;;5.86;100.00;102010.88;5048141;28;20036;-78
2021/12/12 07:48:48;;;;;;;33.22;13.93;;;;;;;5.88;99.93;102014.44;5044771;28;20205;-78
2021/12/12 07:51:14;;;;;;;35.50;14.20;;;;;;;5.86;100.00;102016.94;5045364;28;20037;-78
2021/12/12 07:53:40;;;;;;;38.58;14.15;;;;;;;5.89;100.00;102017.16;5044785;28;20079;-78
2021/12/12 07:56:06;;;;;;;39.83;14.77;;;;;;;5.90;100.00;102018.91;5046579;28;20268;-78
2021/12/12 07:58:32;;;;;;;34.17;14.63;;;;;;;5.92;100.00;102012.16;5044716;28;20272;-78
2021/12/12 08:01:00;;;;;;;40.40;15.13;;;;;;;5.95;100.00;102021.78;5076728;28;20063;-77
2021/12/12 08:03:31;;;;;;;42.00;15.18;;;;;;;5.95;100.00;102021.78;5076807;28;20013;-77
2021/12/12 08:05:59;;;;;;;35.67;14.63;;;;;;;5.97;100.00;102029.63;5055885;28;20048;-77
2021/12/12 08:08:29;;;;;;;39.80;15.43;;;;;;;5.98;100.00;102037.53;5051839;28;20031;-77
2021/12/12 08:10:56;;;;;;;37.22;14.93;;;;;;;6.00;100.00;102035.94;5044509;28;20021;-77
2021/12/12 08:13:22;;;;;;;39.42;15.60;;;;;;;6.02;100.00;102036.91;5044415;28;20036;-77
2021/12/12 08:15:48;;;;;;;41.90;15.90;;;;;;;6.05;100.00;102047.47;5055651;28;20030;-77
2021/12/12 08:18:16;;;;;;;43.40;16.35;;;;;;;6.07;100.00;102047.56;5044345;28;20029;-77
2021/12/12 08:20:44;;;;;;;43.13;16.05;;;;;;;6.08;100.00;102049.34;5044352;28;20053;-77
2021/12/12 08:23:10;;;;;;;37.90;16.15;;;;;;;6.12;100.00;102058.19;5044204;28;20467;-77
2021/12/12 08:25:37;;;;;;;45.22;16.58;;;;;;;6.13;100.00;102055.69;5081048;28;20033;-77
2021/12/12 08:28:04;;;;;;;40.83;15.73;;;;;;;6.16;100.00;102062.75;5044110;28;20037;-78
2021/12/12 08:30:32;;;;;;;39.95;15.52;;;;;;;6.16;100.00;102061.06;5043138;28;20152;-77
2021/12/12 08:32:58;;;;;;;39.17;15.63;;;;;;;6.16;100.00;102068.81;5044066;28;20036;-77
2021/12/12 08:35:26;;;;;;;40.08;14.90;;;;;;;6.18;100.00;102071.50;5057982;28;20099;-77
2021/12/12 08:37:53;;;;;;;42.72;16.55;;;;;;;6.20;100.00;102070.78;5050110;28;20222;-77
2021/12/12 08:40:22;;;;;;;39.03;15.82;;;;;;;6.22;100.00;102073.47;5045655;28;20017;-77
2021/12/12 08:42:50;;;;;;;43.97;16.27;;;;;;;6.23;100.00;102076.16;5044022;28;20021;-77
2021/12/12 08:45:19;;;;;;;43.67;16.05;;;;;;;6.26;100.00;102076.34;5043037;28;20104;-78
2021/12/12 08:47:48;;;;;;;41.75;15.35;;;;;;;6.29;100.00;102069.59;5048434;28;20024;-78
2021/12/12 08:50:17;;;;;;;42.97;15.97;;;;;;;6.30;100.00;102072.25;5045116;28;20339;-76
2021/12/12 08:52:45;;;;;;;;;;;;;;;6.33;100.00;102077.63;5044254;28;20033;-78
2021/12/12 08:55:18;;;;;;;36.03;14.02;;;;;;;6.33;100.00;102075.03;5042190;28;19905;-78
2021/12/12 08:57:58;;;;;;;42.03;14.98;;;;;;;6.34;100.00;102086.25;5047753;28;20025;-78
2021/12/12 09:00:26;;;;;;;39.80;15.75;;;;;;;6.36;100.00;102088.16;5044047;28;20029;-78
2021/12/12 09:02:53;;;;;;;41.97;15.88;;;;;;;6.38;100.00;102091.72;5043711;28;20624;-78
2021/12/12 09:05:25;;;;;;;46.65;16.48;;;;;;;6.40;100.00;102089.22;5066977;28;21072;-78
2021/12/12 09:07:55;;;;;;;42.55;15.38;;;;;;;6.40;100.00;102084.97;5047767;28;20059;-78
2021/12/12 09:10:21;;;;;;;;;;;;;;;6.43;100.00;102090.31;5043460;28;20280;-78
2021/12/12 09:13:19;;;;;;;40.45;15.70;;;;;;;6.44;100.00;102086.03;5048643;28;19964;-78
2021/12/12 09:15:54;;;;;;;42.63;15.63;;;;;;;6.46;100.00;102105.16;5038489;28;20284;-78
2021/12/12 09:18:33;;;;;;;40.15;15.07;;;;;;;6.47;100.00;102106.03;5043027;28;20029;-78
2021/12/12 09:21:10;;;;;;;44.45;15.13;;;;;;;6.48;100.00;102105.25;5035728;28;20037;-78
2021/12/12 09:23:45;;;;;;;43.22;15.80;;;;;;;6.50;100.00;102112.28;5034136;28;20037;-78
2021/12/12 09:26:18;;;;;;;53.28;17.33;;;;;;;6.52;100.00;102109.81;5040727;28;20025;-66
2021/12/12 09:28:53;;;;;;;40.45;16.00;;;;;;;6.52;100.00;102120.16;5042966;28;20018;-66
2021/12/12 09:31:32;;;;;;;42.15;15.10;;;;;;;6.54;100.00;102118.56;5042338;28;20037;-66
2021/12/12 09:34:02;;;;;;;;;;;;;;;6.57;100.00;102118.72;5045738;28;20326;-65
2021/12/12 09:37:08;;;;;;;42.45;14.05;;;;;;;6.58;100.00;102125.72;5043209;28;19905;-66
2021/12/12 09:39:41;;;;;;;40.20;15.63;;;;;;;6.59;100.00;102125.81;4962392;28;20024;-66
2021/12/12 09:42:23;;;;;;;43.83;14.85;;;;;;;6.62;100.00;102127.69;5033100;28;20029;-65
2021/12/12 09:45:01;;;;;;;41.90;14.77;;;;;;;6.64;100.00;102130.38;5053921;28;20045;-65
2021/12/12 09:51:26;;;;;;;42.28;15.63;;;;;;;6.67;100.00;102134.03;5024170;28;20264;-65
2021/12/12 09:54:20;;;;;;;41.55;15.00;;;;;;;6.70;100.00;102138.50;5050332;28;20044;-66
2021/12/12 09:56:49;;;;;;;46.00;15.18;;;;;;;6.71;100.00;102148.94;5041968;28;20034;-66
2021/12/12 09:59:31;;;;;;;41.88;15.75;;;;;;;6.73;100.00;102147.34;5051669;28;20037;-66
2021/12/12 10:02:04;;;;;;;40.00;14.57;;;;;;;6.75;100.00;102143.16;5042858;28;20029;-66
2021/12/12 10:04:40;;;;;;;46.92;15.70;;;;;;;6.78;100.00;102134.69;5042550;28;20044;-65
2021/12/12 10:07:34;;;;;;;44.55;15.45;;;;;;;6.80;100.00;102135.66;5051825;28;20033;-66
2021/12/12 10:10:18;;;;;;;41.35;14.57;;;;;;;6.81;100.00;102137.44;5042823;28;20203;-66
2021/12/12 10:12:53;;;;;;;47.95;15.63;;;;;;;6.84;100.00;102136.75;5042339;28;20092;-66
2021/12/12 10:15:25;;;;;;;46.47;15.98;;;;;;;6.86;100.00;102142.91;5043080;28;20264;-66
2021/12/12 10:18:08;;;;;;;46.00;16.30;;;;;;;6.89;100.00;102128.41;5054020;28;20048;-66
2021/12/12 10:20:35;;;;;;;45.28;16.02;;;;;;;6.90;100.00;102139.69;5042762;28;20025;-66
2021/12/12 10:23:27;;;;;;;44.80;15.82;;;;;;;6.94;100.00;102136.50;5042571;28;20037;-66
2021/12/12 10:26:00;;;;;;;44.95;16.02;;;;;;;6.97;100.00;102136.66;5040826;28;20184;-66
2021/12/12 10:28:32;;;;;;;40.95;15.55;;;;;;;7.00;100.00;102130.78;5051582;28;20041;-66
2021/12/12 10:31:29;;;;;;;45.88;15.88;;;;;;;7.00;100.00;102139.44;5041029;28;20018;-66
2021/12/12 10:33:57;;;;;;;43.60;15.25;;;;;;;7.02;100.00;102140.41;5042104;28;20037;-66
2021/12/12 10:36:49;;;;;;;43.63;15.98;;;;;;;7.05;100.00;102135.41;5048365;28;20068;-66
2021/12/12 10:39:24;;;;;;;40.88;15.95;;;;;;;7.05;100.00;102139.69;5031549;28;20094;-66
2021/12/12 10:42:05;;;;;;;45.88;15.63;;;;;;;7.06;100.00;102136.31;5042210;28;20030;-66
2021/12/12 10:44:36;;;;;;;48.90;16.35;;;;;;;7.07;100.00;102133.81;5042168;28;20061;-66
2021/12/12 10:47:11;;;;;;;47.53;16.02;;;;;;;7.09;100.00;102132.19;5045074;28;20029;-65
2021/12/12 10:50:10;;;;;;;45.78;16.05;;;;;;;7.10;100.00;102139.16;5042099;28;20030;-66
2021/12/12 10:52:46;;;;;;;47.35;17.05;;;;;;;7.11;100.00;102138.38;5042403;28;20260;-66
2021/12/12 10:55:21;;;;;;;42.13;15.27;;;;;;;7.13;100.00;102141.94;5034799;28;20029;-66
2021/12/12 10:57:56;;;;;;;38.95;15.57;;;;;;;7.13;100.00;102141.06;5042210;28;20022;-66
2021/12/12 11:00:27;;;;;;;44.08;16.33;;;;;;;7.14;100.00;102141.13;5042143;28;20050;-65
2021/12/12 11:03:25;;;;;;;44.53;16.80;;;;;;;7.18;100.00;102147.38;5044571;28;20052;-65
2021/12/12 11:06:07;;;;;;;46.00;16.80;;;;;;;7.20;100.00;102139.69;5044833;28;20049;-66
2021/12/12 11:08:46;;;;;;;47.60;16.92;;;;;;;7.22;100.00;102140.69;5074877;28;20024;-65
2021/12/12 11:11:19;;;;;;;47.38;16.90;;;;;;;7.22;100.00;102144.16;5046077;28;20025;-66
2021/12/12 11:14:05;;;;;;;44.00;15.80;;;;;;;7.24;100.00;102145.16;5051775;28;20291;-66
2021/12/12 11:16:39;;;;;;;43.05;15.75;;;;;;;7.27;100.00;102134.97;5045632;28;20036;-66
2021/12/12 11:19:16;;;;;;;44.22;16.30;;;;;;;7.31;100.00;102128.25;5046282;28;20085;-76
2021/12/12 11:21:47;;;;;;;43.65;16.08;;;;;;;7.34;100.00;102137.91;5055996;28;20025;-77
2021/12/12 11:24:21;;;;;;;44.30;16.17;;;;;;;7.36;100.00;102136.28;5055542;28;20049;-76
2021/12/12 11:27:28;;;;;;;41.20;16.50;;;;;;;7.39;100.00;102132.19;5058604;28;20252;-77
2021/12/12 11:30:01;;;;;;;63.97;23.00;;;;;;;7.41;100.00;102130.56;5043796;28;20176;-77
2021/12/12 11:32:34;;;;;;;69.53;26.23;;;;;;;7.42;100.00;102127.16;5044698;28;20045;-77
2021/12/12 11:35:01;;;;;;;52.67;22.42;;;;;;;7.44;100.00;102133.34;5046425;28;20044;-77
2021/12/12 11:37:42;;;;;;;48.83;23.35;;;;;;;7.47;100.00;102130.94;5045218;28;20034;-77
2021/12/12 11:40:24;;;;;;;43.20;18.92;;;;;;;7.48;100.00;102126.63;5074297;28;20331;-77
2021/12/12 11:42:49;;;;;;;51.53;24.27;;;;;;;7.50;100.00;102127.59;5045360;28;20061;-77
2021/12/12 11:45:14;;;;;;;43.05;24.27;;;;;;;7.51;100.00;102125.91;5055899;28;20044;-77
2021/12/12 11:47:55;;;;;;;40.80;18.77;;;;;;;7.54;100.00;102141.66;5046612;28;20056;-77
2021/12/12 11:50:29;;;;;;;35.35;17.25;;;;;;;7.55;100.00;102138.25;5043401;28;20385;-77
2021/12/12 11:53:02;;;;;;;36.47;15.32;;;;;;;7.58;100.00;102135.84;5044402;28;20031;-77
2021/12/12 11:55:35;;;;;;;40.70;16.85;;;;;;;7.58;100.00;102143.63;5047072;28;20021;-77
2021/12/12 11:58:39;;;;;;;42.42;17.50;;;;;;;7.61;100.00;102136.88;5044664;28;20097;-77
2021/12/12 12:01:26;;;;;;;36.40;15.65;;;;;;;7.63;100.00;102134.38;5062390;28;20036;-77